Terminal Aerodrome Forecast
Issued by NWS

Home | Current Version | Previous Version | Text Only | Print | Product List | Glossary On
Versions: 1 2 3 4 5 6 7 8 9 10 11 12 13 14 15 16 17
000
FTUS41 KBTV 311130
TAFMSS
TAF
KMSS 311130Z 3112/0112 23011KT P6SM SCT030 BKN050
     FM311400 25012G18KT P6SM BKN050
     FM312300 28005KT P6SM FEW050
     FM010600 00000KT P6SM SKC=

USA.gov is the U.S. government's official web portal to all federal, state and local government web resources and services.